VTK601 USNN-ULAM
Flight info
| Callsign | VTK601 |
|---|---|
| Flight time | 1h 53m |
| Altitude | 36000 |
| Route | TETSI1P TETSI M59 ERUSA M168 LAGOM LAGOM1P |
| Aircraft | B77L/H-SDE1E2E3FGHIJ2J3J4J5M1RWXY/LB1D1 |
Departure
| Time | 2026-04-29 09:07 |
|---|---|
| Airport | Nizhnevartovsk Airport (USNN) |
Arrival
| Time | 2026-04-29 11:00 |
|---|---|
| Airport | Naryan Mar Airport (ULAM) |
| Time | Latitude | Longitude | Altitude | Speed | Heading |
|---|---|---|---|---|---|
| 2026-04-29 08:51 | 60.94821 | 76.48634 | 190 ft | 0 kts | 132° |
| 2026-04-29 09:01 | 60.94821 | 76.48635 | 190 ft | 0 kts | 132° |
| 2026-04-29 09:01 | 60.94808 | 76.48690 | 201 ft | 10 kts | 101° |
| 2026-04-29 09:01 | 60.94848 | 76.48833 | 201 ft | 13 kts | 38° |
| 2026-04-29 09:02 | 60.94922 | 76.48939 | 188 ft | 13 kts | 34° |
| 2026-04-29 09:02 | 60.95009 | 76.48956 | 198 ft | 13 kts | 352° |
| 2026-04-29 09:02 | 60.95095 | 76.48984 | 201 ft | 13 kts | 34° |
| 2026-04-29 09:02 | 60.95164 | 76.49102 | 193 ft | 13 kts | 40° |
| 2026-04-29 09:03 | 60.95231 | 76.49227 | 190 ft | 13 kts | 43° |
| 2026-04-29 09:03 | 60.95297 | 76.49354 | 206 ft | 13 kts | 43° |
| 2026-04-29 09:03 | 60.95363 | 76.49479 | 191 ft | 13 kts | 42° |
| 2026-04-29 09:03 | 60.95429 | 76.49604 | 193 ft | 13 kts | 42° |
| 2026-04-29 09:04 | 60.95496 | 76.49728 | 191 ft | 13 kts | 42° |
| 2026-04-29 09:04 | 60.95563 | 76.49852 | 206 ft | 13 kts | 42° |
| 2026-04-29 09:04 | 60.95629 | 76.49974 | 204 ft | 13 kts | 42° |
| 2026-04-29 09:04 | 60.95696 | 76.50099 | 201 ft | 13 kts | 42° |
| 2026-04-29 09:05 | 60.95768 | 76.50231 | 190 ft | 15 kts | 42° |
| 2026-04-29 09:05 | 60.95862 | 76.50303 | 198 ft | 15 kts | 1° |
| 2026-04-29 09:05 | 60.95974 | 76.50298 | 199 ft | 16 kts | 358° |
| 2026-04-29 09:05 | 60.96015 | 76.50223 | 205 ft | 10 kts | 242° |
| 2026-04-29 09:06 | 60.95956 | 76.50116 | 192 ft | 20 kts | 222° |
| 2026-04-29 09:06 | 60.95664 | 76.49572 | 208 ft | 92 kts | 222° |
| 2026-04-29 09:06 | 60.95027 | 76.48383 | 200 ft | 152 kts | 222° |
| 2026-04-29 09:06 | 60.94150 | 76.46758 | 388 ft | 180 kts | 221° |
| 2026-04-29 09:07 | 60.93156 | 76.44964 | 753 ft | 199 kts | 221° |
| 2026-04-29 09:07 | 60.92118 | 76.43042 | 1446 ft | 201 kts | 221° |
| 2026-04-29 09:07 | 60.91082 | 76.41113 | 2211 ft | 203 kts | 221° |
| 2026-04-29 09:07 | 60.89973 | 76.39051 | 2563 ft | 228 kts | 223° |
| 2026-04-29 09:08 | 60.89010 | 76.36434 | 3124 ft | 236 kts | 249° |
| 2026-04-29 09:08 | 60.88848 | 76.33067 | 3980 ft | 243 kts | 277° |
| 2026-04-29 09:08 | 60.89472 | 76.29819 | 4889 ft | 250 kts | 299° |
| 2026-04-29 09:08 | 60.90569 | 76.27011 | 5617 ft | 256 kts | 304° |
| 2026-04-29 09:09 | 60.91732 | 76.24191 | 6390 ft | 261 kts | 305° |
| 2026-04-29 09:09 | 60.92915 | 76.21341 | 7189 ft | 263 kts | 306° |
| 2026-04-29 09:09 | 60.94110 | 76.18458 | 7972 ft | 267 kts | 306° |
| 2026-04-29 09:09 | 60.95317 | 76.15531 | 8776 ft | 269 kts | 306° |
| 2026-04-29 09:10 | 60.96528 | 76.12572 | 9387 ft | 275 kts | 307° |
| 2026-04-29 09:10 | 60.97818 | 76.09594 | 10063 ft | 280 kts | 307° |
| 2026-04-29 09:10 | 60.99084 | 76.06501 | 10679 ft | 289 kts | 305° |
| 2026-04-29 09:10 | 61.00417 | 76.03165 | 10862 ft | 315 kts | 305° |
| 2026-04-29 09:11 | 61.01361 | 76.00799 | 11000 ft | 331 kts | 305° |
| 2026-04-29 09:11 | 61.02884 | 75.96980 | 11231 ft | 355 kts | 306° |
| 2026-04-29 09:11 | 61.04489 | 75.92988 | 11862 ft | 366 kts | 306° |
| 2026-04-29 09:11 | 61.06133 | 75.88910 | 12732 ft | 372 kts | 306° |
| 2026-04-29 09:12 | 61.07801 | 75.84777 | 13670 ft | 376 kts | 305° |
| 2026-04-29 09:12 | 61.09486 | 75.80580 | 14522 ft | 382 kts | 305° |
| 2026-04-29 09:12 | 61.11189 | 75.76339 | 15381 ft | 385 kts | 305° |
| 2026-04-29 09:12 | 61.12905 | 75.72057 | 16204 ft | 389 kts | 305° |
| 2026-04-29 09:13 | 61.14638 | 75.67716 | 17018 ft | 394 kts | 304° |
| 2026-04-29 09:13 | 61.16306 | 75.63207 | 17788 ft | 394 kts | 298° |
| 2026-04-29 09:13 | 61.17677 | 75.58270 | 18523 ft | 397 kts | 293° |
| 2026-04-29 09:13 | 61.18916 | 75.53139 | 19246 ft | 399 kts | 291° |
| 2026-04-29 09:14 | 61.20137 | 75.47968 | 20009 ft | 401 kts | 291° |
| 2026-04-29 09:14 | 61.21385 | 75.42789 | 20734 ft | 403 kts | 291° |
| 2026-04-29 09:14 | 61.22667 | 75.37588 | 21437 ft | 406 kts | 292° |
| 2026-04-29 09:14 | 61.23978 | 75.32351 | 22113 ft | 410 kts | 292° |
| 2026-04-29 09:15 | 61.25307 | 75.27082 | 22797 ft | 414 kts | 292° |
| 2026-04-29 09:15 | 61.26651 | 75.21759 | 23495 ft | 417 kts | 292° |
| 2026-04-29 09:15 | 61.27999 | 75.16401 | 24097 ft | 419 kts | 291° |
| 2026-04-29 09:15 | 61.29347 | 75.11006 | 24676 ft | 422 kts | 291° |
| 2026-04-29 09:16 | 61.30688 | 75.05561 | 25251 ft | 424 kts | 291° |
| 2026-04-29 09:16 | 61.32032 | 75.00063 | 25797 ft | 427 kts | 290° |
| 2026-04-29 09:16 | 61.33378 | 74.94534 | 26341 ft | 430 kts | 290° |
| 2026-04-29 09:16 | 61.34730 | 74.88966 | 26868 ft | 433 kts | 290° |
| 2026-04-29 09:17 | 61.36093 | 74.83350 | 27398 ft | 436 kts | 290° |
| 2026-04-29 09:17 | 61.37465 | 74.77691 | 27937 ft | 438 kts | 290° |
| 2026-04-29 09:17 | 61.38843 | 74.71996 | 28449 ft | 441 kts | 290° |
| 2026-04-29 09:17 | 61.40227 | 74.66259 | 28917 ft | 444 kts | 290° |
| 2026-04-29 09:18 | 61.41615 | 74.60489 | 29384 ft | 447 kts | 290° |
| 2026-04-29 09:18 | 61.43013 | 74.54666 | 29813 ft | 449 kts | 289° |
| 2026-04-29 09:18 | 61.44410 | 74.48832 | 30274 ft | 450 kts | 289° |
| 2026-04-29 09:18 | 61.45807 | 74.42986 | 30787 ft | 448 kts | 289° |
| 2026-04-29 09:19 | 61.47197 | 74.37160 | 31278 ft | 446 kts | 289° |
| 2026-04-29 09:19 | 61.48574 | 74.31358 | 31742 ft | 446 kts | 289° |
| 2026-04-29 09:19 | 61.49930 | 74.25516 | 32076 ft | 445 kts | 287° |
| 2026-04-29 09:19 | 61.51053 | 74.19507 | 32469 ft | 440 kts | 282° |
| 2026-04-29 09:20 | 61.52027 | 74.13448 | 32965 ft | 438 kts | 282° |
| 2026-04-29 09:20 | 61.52995 | 74.07407 | 33391 ft | 437 kts | 282° |
| 2026-04-29 09:20 | 61.53963 | 74.01372 | 33815 ft | 437 kts | 282° |
| 2026-04-29 09:20 | 61.54931 | 73.95340 | 34204 ft | 436 kts | 282° |
| 2026-04-29 09:21 | 61.55900 | 73.89307 | 34502 ft | 437 kts | 282° |
| 2026-04-29 09:21 | 61.56871 | 73.83265 | 34790 ft | 438 kts | 282° |
| 2026-04-29 09:21 | 61.57845 | 73.77184 | 35009 ft | 440 kts | 282° |
| 2026-04-29 09:21 | 61.58820 | 73.71080 | 35275 ft | 441 kts | 282° |
| 2026-04-29 09:22 | 61.59795 | 73.64962 | 35584 ft | 441 kts | 282° |
| 2026-04-29 09:22 | 61.60768 | 73.58851 | 35859 ft | 442 kts | 283° |
| 2026-04-29 09:22 | 61.61742 | 73.52706 | 36002 ft | 445 kts | 283° |
| 2026-04-29 09:23 | 61.63699 | 73.40267 | 36088 ft | 448 kts | 282° |
| 2026-04-29 09:23 | 61.65642 | 73.27871 | 36097 ft | 443 kts | 282° |
| 2026-04-29 09:24 | 61.67553 | 73.15575 | 36102 ft | 441 kts | 282° |
| 2026-04-29 09:24 | 61.69447 | 73.03296 | 36097 ft | 441 kts | 282° |
| 2026-04-29 09:25 | 61.71329 | 72.90995 | 36096 ft | 441 kts | 282° |
| 2026-04-29 09:25 | 61.73203 | 72.78670 | 36098 ft | 441 kts | 282° |
| 2026-04-29 09:26 | 61.75069 | 72.66310 | 36127 ft | 443 kts | 282° |
| 2026-04-29 09:26 | 61.76933 | 72.53882 | 36107 ft | 445 kts | 281° |
| 2026-04-29 09:27 | 61.78791 | 72.41419 | 36089 ft | 445 kts | 282° |
| 2026-04-29 09:27 | 61.80652 | 72.28918 | 36095 ft | 446 kts | 281° |
| 2026-04-29 09:28 | 61.82505 | 72.16397 | 36089 ft | 446 kts | 281° |
| 2026-04-29 09:28 | 61.84349 | 72.03846 | 36090 ft | 446 kts | 281° |
| 2026-04-29 09:29 | 61.86182 | 71.91280 | 36089 ft | 446 kts | 281° |
| 2026-04-29 09:29 | 61.88910 | 71.72398 | 36095 ft | 447 kts | 281° |
| 2026-04-29 09:30 | 61.90714 | 71.59786 | 36122 ft | 447 kts | 281° |
| 2026-04-29 09:30 | 61.92512 | 71.47125 | 36089 ft | 448 kts | 281° |
| 2026-04-29 09:31 | 61.94303 | 71.34461 | 36084 ft | 447 kts | 281° |
| 2026-04-29 09:31 | 61.96104 | 71.21813 | 36081 ft | 447 kts | 281° |
| 2026-04-29 09:32 | 61.97896 | 71.09157 | 36081 ft | 447 kts | 280° |
| 2026-04-29 09:32 | 61.99676 | 70.96468 | 36101 ft | 447 kts | 280° |
| 2026-04-29 09:33 | 62.01228 | 70.83706 | 36078 ft | 445 kts | 277° |
| 2026-04-29 09:33 | 62.02625 | 70.70849 | 36069 ft | 445 kts | 277° |
| 2026-04-29 09:34 | 62.04026 | 70.57991 | 36054 ft | 446 kts | 277° |
| 2026-04-29 09:34 | 62.05444 | 70.45130 | 36100 ft | 446 kts | 277° |
| 2026-04-29 09:35 | 62.06865 | 70.32236 | 36072 ft | 447 kts | 277° |
| 2026-04-29 09:35 | 62.08276 | 70.19312 | 36053 ft | 447 kts | 277° |
| 2026-04-29 09:36 | 62.09676 | 70.06370 | 36054 ft | 448 kts | 276° |
| 2026-04-29 09:36 | 62.11064 | 69.93401 | 36046 ft | 448 kts | 276° |
| 2026-04-29 09:37 | 62.12441 | 69.80403 | 36042 ft | 448 kts | 276° |
| 2026-04-29 09:37 | 62.13805 | 69.67402 | 36044 ft | 448 kts | 276° |
| 2026-04-29 09:38 | 62.15157 | 69.54390 | 36035 ft | 449 kts | 276° |
| 2026-04-29 09:38 | 62.16501 | 69.41359 | 36035 ft | 449 kts | 276° |
| 2026-04-29 09:39 | 62.17830 | 69.28321 | 36056 ft | 449 kts | 276° |
| 2026-04-29 09:39 | 62.19145 | 69.15250 | 36062 ft | 450 kts | 275° |
| 2026-04-29 09:40 | 62.20451 | 69.02137 | 36042 ft | 451 kts | 275° |
| 2026-04-29 09:40 | 62.21753 | 68.88980 | 36032 ft | 451 kts | 275° |
| 2026-04-29 09:41 | 62.23041 | 68.75810 | 36035 ft | 451 kts | 275° |
| 2026-04-29 09:41 | 62.24318 | 68.62633 | 36032 ft | 451 kts | 275° |
| 2026-04-29 09:42 | 62.25578 | 68.49453 | 36035 ft | 451 kts | 275° |
| 2026-04-29 09:42 | 62.26828 | 68.36252 | 36039 ft | 452 kts | 275° |
| 2026-04-29 09:43 | 62.28063 | 68.23032 | 36036 ft | 452 kts | 275° |
| 2026-04-29 09:43 | 62.29283 | 68.09875 | 36033 ft | 452 kts | 275° |
| 2026-04-29 09:44 | 62.30496 | 67.96635 | 36071 ft | 452 kts | 275° |
| 2026-04-29 09:44 | 62.31702 | 67.83338 | 36039 ft | 453 kts | 275° |
| 2026-04-29 09:45 | 62.32896 | 67.70021 | 36031 ft | 454 kts | 274° |
| 2026-04-29 09:45 | 62.34075 | 67.56682 | 36033 ft | 454 kts | 274° |
| 2026-04-29 09:46 | 62.35244 | 67.43307 | 36031 ft | 455 kts | 274° |
| 2026-04-29 09:46 | 62.36406 | 67.29920 | 36025 ft | 455 kts | 274° |
| 2026-04-29 09:47 | 62.37553 | 67.16505 | 36020 ft | 455 kts | 274° |
| 2026-04-29 09:47 | 62.38687 | 67.03084 | 36015 ft | 455 kts | 274° |
| 2026-04-29 09:48 | 62.39808 | 66.89675 | 36026 ft | 454 kts | 274° |
| 2026-04-29 09:48 | 62.40911 | 66.76277 | 36012 ft | 454 kts | 274° |
| 2026-04-29 09:49 | 62.42004 | 66.62871 | 36008 ft | 454 kts | 274° |
| 2026-04-29 09:49 | 62.43084 | 66.49435 | 36004 ft | 454 kts | 273° |
| 2026-04-29 09:50 | 62.44152 | 66.35988 | 36007 ft | 454 kts | 273° |
| 2026-04-29 09:50 | 62.45208 | 66.22539 | 36003 ft | 454 kts | 273° |
| 2026-04-29 09:51 | 62.46252 | 66.09090 | 35990 ft | 453 kts | 273° |
| 2026-04-29 09:51 | 62.47350 | 65.97883 | 35993 ft | 459 kts | 279° |
| 2026-04-29 09:52 | 62.49173 | 65.84631 | 35992 ft | 460 kts | 280° |
| 2026-04-29 09:52 | 62.50986 | 65.71453 | 35991 ft | 461 kts | 279° |
| 2026-04-29 09:53 | 62.52783 | 65.58139 | 35986 ft | 460 kts | 279° |
| 2026-04-29 09:53 | 62.54557 | 65.44788 | 35992 ft | 462 kts | 279° |
| 2026-04-29 09:54 | 62.56317 | 65.31396 | 35980 ft | 462 kts | 279° |
| 2026-04-29 09:54 | 62.58066 | 65.17981 | 35978 ft | 463 kts | 279° |
| 2026-04-29 09:55 | 62.59806 | 65.04533 | 35970 ft | 463 kts | 279° |
| 2026-04-29 09:55 | 62.61528 | 64.91074 | 35968 ft | 462 kts | 279° |
| 2026-04-29 09:56 | 62.63240 | 64.77610 | 35973 ft | 464 kts | 279° |
| 2026-04-29 09:56 | 62.64944 | 64.64080 | 35967 ft | 464 kts | 278° |
| 2026-04-29 09:57 | 62.66638 | 64.50512 | 35975 ft | 465 kts | 278° |
| 2026-04-29 09:57 | 62.68324 | 64.36885 | 35959 ft | 467 kts | 278° |
| 2026-04-29 09:58 | 62.70002 | 64.23221 | 35950 ft | 468 kts | 278° |
| 2026-04-29 09:58 | 62.71669 | 64.09501 | 35951 ft | 469 kts | 278° |
| 2026-04-29 09:59 | 62.73324 | 63.95744 | 35950 ft | 469 kts | 278° |
| 2026-04-29 09:59 | 62.74978 | 63.81880 | 35954 ft | 470 kts | 278° |
| 2026-04-29 10:00 | 62.76601 | 63.68150 | 35940 ft | 470 kts | 278° |
| 2026-04-29 10:00 | 62.78231 | 63.54223 | 35940 ft | 470 kts | 278° |
| 2026-04-29 10:01 | 62.79839 | 63.40377 | 35934 ft | 470 kts | 278° |
| 2026-04-29 10:01 | 62.81422 | 63.26608 | 35934 ft | 470 kts | 278° |
| 2026-04-29 10:02 | 62.83002 | 63.12721 | 35920 ft | 469 kts | 278° |
| 2026-04-29 10:02 | 62.84562 | 62.98865 | 35923 ft | 469 kts | 277° |
| 2026-04-29 10:03 | 62.86108 | 62.85003 | 35927 ft | 469 kts | 277° |
| 2026-04-29 10:03 | 62.87642 | 62.71113 | 35913 ft | 469 kts | 277° |
| 2026-04-29 10:04 | 62.89163 | 62.57211 | 35909 ft | 469 kts | 277° |
| 2026-04-29 10:04 | 62.90670 | 62.43297 | 35910 ft | 469 kts | 277° |
| 2026-04-29 10:05 | 62.92162 | 62.29371 | 35904 ft | 469 kts | 277° |
| 2026-04-29 10:05 | 62.93642 | 62.15413 | 35902 ft | 470 kts | 277° |
| 2026-04-29 10:06 | 62.95109 | 62.01423 | 35902 ft | 470 kts | 277° |
| 2026-04-29 10:06 | 62.96564 | 61.87419 | 35898 ft | 471 kts | 277° |
| 2026-04-29 10:07 | 62.98011 | 61.73348 | 35891 ft | 472 kts | 277° |
| 2026-04-29 10:07 | 62.99444 | 61.59262 | 35893 ft | 472 kts | 277° |
| 2026-04-29 10:08 | 63.00862 | 61.45166 | 35885 ft | 472 kts | 276° |
| 2026-04-29 10:08 | 63.02266 | 61.31050 | 35914 ft | 472 kts | 276° |
| 2026-04-29 10:09 | 63.03660 | 61.16894 | 35887 ft | 473 kts | 276° |
| 2026-04-29 10:09 | 63.05040 | 61.02707 | 35871 ft | 473 kts | 276° |
| 2026-04-29 10:10 | 63.06409 | 60.88488 | 35877 ft | 474 kts | 276° |
| 2026-04-29 10:10 | 63.07763 | 60.74262 | 35866 ft | 475 kts | 276° |
| 2026-04-29 10:11 | 63.09103 | 60.60008 | 35858 ft | 475 kts | 276° |
| 2026-04-29 10:11 | 63.10435 | 60.45714 | 35859 ft | 475 kts | 276° |
| 2026-04-29 10:12 | 63.11749 | 60.31407 | 35852 ft | 475 kts | 276° |
| 2026-04-29 10:12 | 63.13043 | 60.17090 | 35853 ft | 476 kts | 276° |
| 2026-04-29 10:13 | 63.14325 | 60.02734 | 35851 ft | 476 kts | 276° |
| 2026-04-29 10:13 | 63.15598 | 59.88354 | 35852 ft | 477 kts | 276° |
| 2026-04-29 10:14 | 63.17604 | 59.74370 | 35835 ft | 490 kts | 298° |
| 2026-04-29 10:14 | 63.19757 | 59.68422 | 35847 ft | 500 kts | 311° |
| 2026-04-29 10:14 | 63.22566 | 59.63785 | 35836 ft | 508 kts | 327° |
| 2026-04-29 10:15 | 63.28843 | 59.56400 | 35842 ft | 512 kts | 328° |
| 2026-04-29 10:15 | 63.35161 | 59.48944 | 35834 ft | 516 kts | 328° |
| 2026-04-29 10:16 | 63.40401 | 59.42571 | 35831 ft | 517 kts | 327° |
| 2026-04-29 10:16 | 63.47758 | 59.33452 | 35825 ft | 518 kts | 327° |
| 2026-04-29 10:17 | 63.54052 | 59.25598 | 35827 ft | 517 kts | 327° |
| 2026-04-29 10:17 | 63.60329 | 59.17732 | 35838 ft | 516 kts | 327° |
| 2026-04-29 10:18 | 63.66589 | 59.09855 | 35824 ft | 515 kts | 327° |
| 2026-04-29 10:18 | 63.72830 | 59.01967 | 35803 ft | 513 kts | 327° |
| 2026-04-29 10:19 | 63.79044 | 58.94067 | 35819 ft | 511 kts | 327° |
| 2026-04-29 10:19 | 63.85235 | 58.86156 | 35801 ft | 511 kts | 327° |
| 2026-04-29 10:20 | 63.91419 | 58.78217 | 35815 ft | 511 kts | 327° |
| 2026-04-29 10:20 | 63.97596 | 58.70242 | 35800 ft | 511 kts | 327° |
| 2026-04-29 10:21 | 64.03777 | 58.62222 | 35790 ft | 511 kts | 327° |
| 2026-04-29 10:21 | 64.09951 | 58.54169 | 35802 ft | 511 kts | 327° |
| 2026-04-29 10:22 | 64.16075 | 58.46134 | 35799 ft | 511 kts | 327° |
| 2026-04-29 10:22 | 64.22240 | 58.37984 | 35799 ft | 511 kts | 327° |
| 2026-04-29 10:23 | 64.28398 | 58.29808 | 35779 ft | 511 kts | 327° |
| 2026-04-29 10:23 | 64.34556 | 58.21628 | 35785 ft | 511 kts | 327° |
| 2026-04-29 10:24 | 64.40785 | 58.13631 | 35780 ft | 512 kts | 328° |
| 2026-04-29 10:24 | 64.47016 | 58.05653 | 35789 ft | 512 kts | 328° |
| 2026-04-29 10:25 | 64.53235 | 57.97610 | 35765 ft | 511 kts | 328° |
| 2026-04-29 10:25 | 64.59433 | 57.89525 | 35761 ft | 511 kts | 328° |
| 2026-04-29 10:26 | 64.65633 | 57.81396 | 35782 ft | 510 kts | 328° |
| 2026-04-29 10:26 | 64.71799 | 57.73181 | 35772 ft | 509 kts | 326° |
| 2026-04-29 10:27 | 64.80780 | 57.59917 | 35762 ft | 509 kts | 325° |
| 2026-04-29 10:28 | 64.86712 | 57.51056 | 35764 ft | 508 kts | 325° |
| 2026-04-29 10:28 | 64.92695 | 57.42177 | 35756 ft | 508 kts | 325° |
| 2026-04-29 10:29 | 64.98676 | 57.33277 | 35758 ft | 508 kts | 325° |
| 2026-04-29 10:29 | 65.04652 | 57.24327 | 35755 ft | 508 kts | 325° |
| 2026-04-29 10:30 | 65.10626 | 57.15336 | 35756 ft | 509 kts | 325° |
| 2026-04-29 10:30 | 65.16655 | 57.06472 | 35750 ft | 510 kts | 327° |
| 2026-04-29 10:31 | 65.22769 | 56.97919 | 35751 ft | 510 kts | 327° |
| 2026-04-29 10:31 | 65.28879 | 56.89291 | 35751 ft | 510 kts | 327° |
| 2026-04-29 10:32 | 65.34965 | 56.80565 | 35743 ft | 510 kts | 327° |
| 2026-04-29 10:32 | 65.41042 | 56.71795 | 35740 ft | 509 kts | 327° |
| 2026-04-29 10:33 | 65.46081 | 56.64480 | 35739 ft | 509 kts | 327° |
| 2026-04-29 10:33 | 65.52128 | 56.55631 | 35750 ft | 508 kts | 327° |
| 2026-04-29 10:34 | 65.58171 | 56.46725 | 35735 ft | 508 kts | 327° |
| 2026-04-29 10:34 | 65.64202 | 56.37790 | 35733 ft | 508 kts | 327° |
| 2026-04-29 10:35 | 65.70221 | 56.28827 | 35735 ft | 508 kts | 327° |
| 2026-04-29 10:35 | 65.76235 | 56.19826 | 35732 ft | 507 kts | 326° |
| 2026-04-29 10:36 | 65.82237 | 56.10791 | 35741 ft | 507 kts | 327° |
| 2026-04-29 10:36 | 65.87748 | 56.02453 | 35730 ft | 507 kts | 327° |
| 2026-04-29 10:37 | 65.93740 | 55.93328 | 35727 ft | 508 kts | 326° |
| 2026-04-29 10:37 | 65.99760 | 55.84120 | 35003 ft | 520 kts | 326° |
| 2026-04-29 10:37 | 66.02832 | 55.79400 | 34253 ft | 521 kts | 326° |
| 2026-04-29 10:38 | 66.05907 | 55.74663 | 33352 ft | 522 kts | 326° |
| 2026-04-29 10:38 | 66.08989 | 55.69899 | 32396 ft | 522 kts | 326° |
| 2026-04-29 10:38 | 66.12016 | 55.65211 | 31484 ft | 521 kts | 326° |
| 2026-04-29 10:38 | 66.15113 | 55.60403 | 30772 ft | 515 kts | 326° |
| 2026-04-29 10:39 | 66.18084 | 55.55791 | 30217 ft | 508 kts | 326° |
| 2026-04-29 10:39 | 66.21058 | 55.51175 | 29601 ft | 502 kts | 326° |
| 2026-04-29 10:39 | 66.23998 | 55.46606 | 28923 ft | 496 kts | 326° |
| 2026-04-29 10:39 | 66.26896 | 55.42090 | 28323 ft | 489 kts | 326° |
| 2026-04-29 10:40 | 66.29758 | 55.37620 | 27759 ft | 482 kts | 326° |
| 2026-04-29 10:40 | 66.32574 | 55.33205 | 27203 ft | 476 kts | 326° |
| 2026-04-29 10:40 | 66.35359 | 55.28826 | 26660 ft | 471 kts | 326° |
| 2026-04-29 10:40 | 66.38110 | 55.24485 | 26101 ft | 466 kts | 326° |
| 2026-04-29 10:41 | 66.40834 | 55.20178 | 25543 ft | 461 kts | 326° |
| 2026-04-29 10:41 | 66.43563 | 55.15852 | 25010 ft | 456 kts | 326° |
| 2026-04-29 10:41 | 66.46191 | 55.11676 | 24491 ft | 452 kts | 326° |
| 2026-04-29 10:41 | 66.48826 | 55.07474 | 23976 ft | 447 kts | 326° |
| 2026-04-29 10:42 | 66.51440 | 55.03297 | 23473 ft | 443 kts | 325° |
| 2026-04-29 10:42 | 66.54016 | 54.99187 | 22886 ft | 435 kts | 326° |
| 2026-04-29 10:42 | 66.56554 | 54.95100 | 22348 ft | 431 kts | 325° |
| 2026-04-29 10:42 | 66.59059 | 54.91049 | 21845 ft | 426 kts | 326° |
| 2026-04-29 10:43 | 66.61532 | 54.87070 | 21329 ft | 419 kts | 325° |
| 2026-04-29 10:43 | 66.63977 | 54.83117 | 20872 ft | 415 kts | 326° |
| 2026-04-29 10:43 | 66.66394 | 54.79202 | 20368 ft | 411 kts | 326° |
| 2026-04-29 10:43 | 66.68784 | 54.75310 | 19898 ft | 406 kts | 326° |
| 2026-04-29 10:44 | 66.71153 | 54.71444 | 19414 ft | 404 kts | 326° |
| 2026-04-29 10:44 | 66.73512 | 54.67589 | 18933 ft | 403 kts | 326° |
| 2026-04-29 10:44 | 66.75854 | 54.63744 | 18467 ft | 401 kts | 325° |
| 2026-04-29 10:44 | 66.78188 | 54.59932 | 17998 ft | 396 kts | 326° |
| 2026-04-29 10:45 | 66.80500 | 54.56141 | 17461 ft | 395 kts | 325° |
| 2026-04-29 10:45 | 66.82793 | 54.52364 | 16997 ft | 390 kts | 325° |
| 2026-04-29 10:45 | 66.85066 | 54.48612 | 16541 ft | 387 kts | 325° |
| 2026-04-29 10:45 | 66.87318 | 54.44890 | 16052 ft | 385 kts | 325° |
| 2026-04-29 10:46 | 66.89549 | 54.41191 | 15594 ft | 382 kts | 325° |
| 2026-04-29 10:46 | 66.91772 | 54.37502 | 15138 ft | 379 kts | 325° |
| 2026-04-29 10:46 | 66.93973 | 54.33834 | 14675 ft | 376 kts | 325° |
| 2026-04-29 10:46 | 66.96158 | 54.30181 | 14219 ft | 375 kts | 325° |
| 2026-04-29 10:47 | 66.98399 | 54.26891 | 13760 ft | 371 kts | 336° |
| 2026-04-29 10:47 | 67.00836 | 54.24750 | 13324 ft | 370 kts | 342° |
| 2026-04-29 10:47 | 67.03300 | 54.22873 | 12830 ft | 369 kts | 343° |
| 2026-04-29 10:47 | 67.05757 | 54.20997 | 12367 ft | 367 kts | 342° |
| 2026-04-29 10:48 | 67.08192 | 54.19084 | 11938 ft | 366 kts | 342° |
| 2026-04-29 10:48 | 67.10616 | 54.17126 | 11485 ft | 365 kts | 341° |
| 2026-04-29 10:48 | 67.13031 | 54.15146 | 11040 ft | 364 kts | 341° |
| 2026-04-29 10:48 | 67.15436 | 54.13156 | 10602 ft | 362 kts | 341° |
| 2026-04-29 10:49 | 67.17809 | 54.11179 | 10428 ft | 354 kts | 341° |
| 2026-04-29 10:49 | 67.20120 | 54.09243 | 10283 ft | 345 kts | 341° |
| 2026-04-29 10:49 | 67.22374 | 54.07345 | 10132 ft | 336 kts | 341° |
| 2026-04-29 10:49 | 67.24569 | 54.05494 | 10008 ft | 328 kts | 341° |
| 2026-04-29 10:50 | 67.26716 | 54.03685 | 9871 ft | 321 kts | 341° |
| 2026-04-29 10:50 | 67.28813 | 54.01915 | 9736 ft | 313 kts | 341° |
| 2026-04-29 10:50 | 67.30860 | 54.00183 | 9544 ft | 307 kts | 341° |
| 2026-04-29 10:50 | 67.32868 | 53.98483 | 9320 ft | 302 kts | 341° |
| 2026-04-29 10:51 | 67.34890 | 53.96976 | 9020 ft | 300 kts | 346° |
| 2026-04-29 10:51 | 67.36938 | 53.95842 | 8692 ft | 300 kts | 348° |
| 2026-04-29 10:51 | 67.38978 | 53.94802 | 8395 ft | 297 kts | 348° |
| 2026-04-29 10:51 | 67.40980 | 53.93778 | 8161 ft | 290 kts | 348° |
| 2026-04-29 10:52 | 67.42961 | 53.92749 | 7669 ft | 292 kts | 348° |
| 2026-04-29 10:52 | 67.44944 | 53.91704 | 7297 ft | 290 kts | 348° |
| 2026-04-29 10:52 | 67.46897 | 53.90651 | 6950 ft | 281 kts | 348° |
| 2026-04-29 10:52 | 67.48771 | 53.89636 | 6650 ft | 272 kts | 348° |
| 2026-04-29 10:53 | 67.50602 | 53.88646 | 6336 ft | 266 kts | 348° |
| 2026-04-29 10:53 | 67.52395 | 53.87662 | 6075 ft | 260 kts | 348° |
| 2026-04-29 10:53 | 67.54155 | 53.86696 | 5781 ft | 256 kts | 348° |
| 2026-04-29 10:53 | 67.55892 | 53.85746 | 5649 ft | 254 kts | 348° |
| 2026-04-29 10:54 | 67.57654 | 53.84778 | 5620 ft | 266 kts | 348° |
| 2026-04-29 10:54 | 67.59487 | 53.83771 | 5252 ft | 271 kts | 348° |
| 2026-04-29 10:54 | 67.61322 | 53.82756 | 4934 ft | 268 kts | 348° |
| 2026-04-29 10:54 | 67.63132 | 53.81762 | 4647 ft | 264 kts | 348° |
| 2026-04-29 10:55 | 67.64890 | 53.80672 | 4333 ft | 255 kts | 338° |
| 2026-04-29 10:55 | 67.66303 | 53.78006 | 4112 ft | 251 kts | 304° |
| 2026-04-29 10:55 | 67.67018 | 53.73848 | 4081 ft | 253 kts | 279° |
| 2026-04-29 10:55 | 67.67099 | 53.69242 | 3800 ft | 252 kts | 261° |
| 2026-04-29 10:56 | 67.66864 | 53.64712 | 3505 ft | 248 kts | 258° |
| 2026-04-29 10:56 | 67.66601 | 53.60259 | 3184 ft | 241 kts | 258° |
| 2026-04-29 10:56 | 67.66362 | 53.56054 | 2908 ft | 227 kts | 259° |
| 2026-04-29 10:56 | 67.66133 | 53.51982 | 2626 ft | 223 kts | 259° |
| 2026-04-29 10:57 | 67.65916 | 53.47978 | 2337 ft | 219 kts | 258° |
| 2026-04-29 10:57 | 67.65709 | 53.44087 | 2122 ft | 211 kts | 259° |
| 2026-04-29 10:57 | 67.65510 | 53.40307 | 1826 ft | 205 kts | 259° |
| 2026-04-29 10:57 | 67.65323 | 53.36749 | 1590 ft | 188 kts | 258° |
| 2026-04-29 10:58 | 67.65151 | 53.33476 | 1360 ft | 171 kts | 258° |
| 2026-04-29 10:58 | 67.64995 | 53.30491 | 1146 ft | 163 kts | 257° |
| 2026-04-29 10:58 | 67.64841 | 53.27589 | 940 ft | 156 kts | 258° |
| 2026-04-29 10:58 | 67.64702 | 53.24883 | 753 ft | 144 kts | 258° |
| 2026-04-29 10:59 | 67.64565 | 53.22271 | 573 ft | 144 kts | 256° |
| 2026-04-29 10:59 | 67.64422 | 53.19657 | 384 ft | 145 kts | 257° |
| 2026-04-29 10:59 | 67.64279 | 53.17010 | 210 ft | 146 kts | 259° |
| 2026-04-29 10:59 | 67.64150 | 53.14377 | 53 ft | 143 kts | 259° |
| 2026-04-29 11:00 | 67.64026 | 53.12048 | 49 ft | 112 kts | 262° |
| 2026-04-29 11:00 | 67.63946 | 53.10540 | 47 ft | 44 kts | 262° |
| 2026-04-29 11:00 | 67.63904 | 53.09757 | 48 ft | 35 kts | 261° |
| 2026-04-29 11:00 | 67.63874 | 53.09277 | 49 ft | 22 kts | 252° |
| 2026-04-29 11:01 | 67.63753 | 53.09058 | 48 ft | 22 kts | 202° |
| 2026-04-29 11:01 | 67.63655 | 53.08964 | 48 ft | 13 kts | 200° |
| 2026-04-29 11:01 | 67.63583 | 53.08836 | 46 ft | 11 kts | 233° |
| 2026-04-29 11:01 | 67.63580 | 53.08705 | 48 ft | 0 kts | 290° |